Avenue, Maryland
Current Conditions -  °F | °C
As of 1:19 PM on Monday 26 Jan 2015 (Local Time) from K2W6 Reporting Station
Overcast Overcast  
Wind Chill: 31°   Ceiling: 700
Heat Index: 36°   Visibility: 10mi
Dew Point: 32°   Wind: 6mph
Humidity: 87%   Direction: 10°N
Pressure: 29.68"   Gusts: NA
Location:  38.26°N, 76.77°W
Report Text: K2W6 261819Z AUTO 01005KT 10SM OVC007 02/00 A2968 RMK AO1
Loading
Personal Weather Stations






























Interactive Weather Map New forecast layout! Learn more

10-Day Weather Forecast

Advertisements
Track Severe Weather on mobile